sensor_id;sensor_type;location;lat;lon;timestamp;pressure;altitude;pressure_sealevel;temperature;humidity
78613;BME280;67933;51.060;3.638;2023-12-14T00:01:42;101006.97;;;7.89;100.00
78613;BME280;67933;51.060;3.638;2023-12-14T00:04:08;101005.16;;;7.90;100.00
78613;BME280;67933;51.060;3.638;2023-12-14T00:06:33;101025.38;;;7.91;100.00
78613;BME280;67933;51.060;3.638;2023-12-14T00:08:59;101020.84;;;7.94;100.00
78613;BME280;67933;51.060;3.638;2023-12-14T00:11:24;101025.03;;;7.98;100.00
78613;BME280;67933;51.060;3.638;2023-12-14T00:13:50;101031.28;;;7.97;100.00
78613;BME280;67933;51.060;3.638;2023-12-14T00:16:15;101032.09;;;7.98;100.00
78613;BME280;67933;51.060;3.638;2023-12-14T00:18:40;101037.38;;;7.98;100.00
78613;BME280;67933;51.060;3.638;2023-12-14T00:21:06;101042.69;;;7.98;100.00
78613;BME280;67933;51.060;3.638;2023-12-14T00:23:33;101042.63;;;7.99;100.00
78613;BME280;67933;51.060;3.638;2023-12-14T00:25:59;101048.16;;;7.93;100.00
78613;BME280;67933;51.060;3.638;2023-12-14T00:28:24;101057.94;;;7.91;100.00
78613;BME280;67933;51.060;3.638;2023-12-14T00:30:50;101064.22;;;7.89;100.00
78613;BME280;67933;51.060;3.638;2023-12-14T00:33:15;101065.09;;;7.89;100.00
78613;BME280;67933;51.060;3.638;2023-12-14T00:35:40;101076.56;;;7.88;100.00
78613;BME280;67933;51.060;3.638;2023-12-14T00:38:06;101090.88;;;7.83;100.00
78613;BME280;67933;51.060;3.638;2023-12-14T00:40:31;101094.66;;;7.77;100.00
78613;BME280;67933;51.060;3.638;2023-12-14T00:42:56;101105.34;;;7.74;100.00
78613;BME280;67933;51.060;3.638;2023-12-14T00:45:22;101102.63;;;7.76;100.00
78613;BME280;67933;51.060;3.638;2023-12-14T00:47:47;101111.56;;;7.73;100.00
78613;BME280;67933;51.060;3.638;2023-12-14T00:50:12;101119.72;;;7.67;100.00
78613;BME280;67933;51.060;3.638;2023-12-14T00:52:38;101134.09;;;7.60;100.00
78613;BME280;67933;51.060;3.638;2023-12-14T00:55:04;101125.69;;;7.50;100.00
78613;BME280;67933;51.060;3.638;2023-12-14T00:57:29;101136.47;;;7.44;100.00
78613;BME280;67933;51.060;3.638;2023-12-14T00:59:55;101138.34;;;7.42;100.00
78613;BME280;67933;51.060;3.638;2023-12-14T01:02:20;101144.59;;;7.40;100.00
78613;BME280;67933;51.060;3.638;2023-12-14T01:04:45;101156.88;;;7.41;100.00
78613;BME280;67933;51.060;3.638;2023-12-14T01:07:11;101158.81;;;7.35;100.00
78613;BME280;67933;51.060;3.638;2023-12-14T01:09:36;101171.25;;;7.33;100.00
78613;BME280;67933;51.060;3.638;2023-12-14T01:12:02;101169.63;;;7.29;100.00
78613;BME280;67933;51.060;3.638;2023-12-14T01:14:27;101177.59;;;7.28;100.00
78613;BME280;67933;51.060;3.638;2023-12-14T01:16:52;101181.38;;;7.21;100.00
78613;BME280;67933;51.060;3.638;2023-12-14T01:19:18;101186.03;;;7.14;100.00
78613;BME280;67933;51.060;3.638;2023-12-14T01:21:44;101187.91;;;7.12;100.00
78613;BME280;67933;51.060;3.638;2023-12-14T01:24:09;101201.00;;;7.14;100.00
78613;BME280;67933;51.060;3.638;2023-12-14T01:26:35;101198.44;;;7.12;100.00
78613;BME280;67933;51.060;3.638;2023-12-14T01:29:00;101206.47;;;7.09;100.00
78613;BME280;67933;51.060;3.638;2023-12-14T01:31:25;101220.53;;;7.10;100.00
78613;BME280;67933;51.060;3.638;2023-12-14T01:33:51;101227.63;;;7.08;100.00
78613;BME280;67933;51.060;3.638;2023-12-14T01:36:24;101224.94;;;7.09;100.00
78613;BME280;67933;51.060;3.638;2023-12-14T01:38:50;101229.69;;;7.00;100.00
78613;BME280;67933;51.060;3.638;2023-12-14T01:41:16;101237.66;;;6.98;100.00
78613;BME280;67933;51.060;3.638;2023-12-14T01:43:41;101235.38;;;6.89;100.00
78613;BME280;67933;51.060;3.638;2023-12-14T01:46:07;101241.66;;;6.85;100.00
78613;BME280;67933;51.060;3.638;2023-12-14T01:48:32;101249.75;;;6.80;100.00
78613;BME280;67933;51.060;3.638;2023-12-14T01:50:58;101256.78;;;6.80;100.00
78613;BME280;67933;51.060;3.638;2023-12-14T01:53:23;101258.66;;;6.76;100.00
78613;BME280;67933;51.060;3.638;2023-12-14T01:55:48;101263.28;;;6.70;100.00
78613;BME280;67933;51.060;3.638;2023-12-14T01:58:14;101279.19;;;6.67;100.00
78613;BME280;67933;51.060;3.638;2023-12-14T02:00:44;101283.59;;;6.66;100.00
78613;BME280;67933;51.060;3.638;2023-12-14T02:03:11;101288.09;;;6.64;100.00
78613;BME280;67933;51.060;3.638;2023-12-14T02:05:37;101298.69;;;6.63;100.00
78613;BME280;67933;51.060;3.638;2023-12-14T02:08:02;101304.97;;;6.58;100.00
78613;BME280;67933;51.060;3.638;2023-12-14T02:10:28;101311.25;;;6.54;100.00
78613;BME280;67933;51.060;3.638;2023-12-14T02:12:53;101303.44;;;6.51;100.00
78613;BME280;67933;51.060;3.638;2023-12-14T02:15:19;101300.03;;;6.49;100.00
78613;BME280;67933;51.060;3.638;2023-12-14T02:17:45;101301.88;;;6.46;100.00
78613;BME280;67933;51.060;3.638;2023-12-14T02:20:10;101294.16;;;6.41;100.00
78613;BME280;67933;51.060;3.638;2023-12-14T02:22:48;101298.63;;;6.38;100.00
78613;BME280;67933;51.060;3.638;2023-12-14T02:25:17;101310.09;;;6.37;100.00
78613;BME280;67933;51.060;3.638;2023-12-14T02:27:42;101308.44;;;6.34;100.00
78613;BME280;67933;51.060;3.638;2023-12-14T02:30:09;101319.06;;;6.31;100.00
78613;BME280;67933;51.060;3.638;2023-12-14T02:32:34;101328.81;;;6.28;100.00
78613;BME280;67933;51.060;3.638;2023-12-14T02:34:59;101330.66;;;6.26;100.00
78613;BME280;67933;51.060;3.638;2023-12-14T02:37:25;101325.56;;;6.19;100.00
78613;BME280;67933;51.060;3.638;2023-12-14T02:39:50;101321.16;;;6.20;100.00
78613;BME280;67933;51.060;3.638;2023-12-14T02:42:16;101329.16;;;6.18;100.00
78613;BME280;67933;51.060;3.638;2023-12-14T02:44:41;101335.28;;;6.19;100.00
78613;BME280;67933;51.060;3.638;2023-12-14T02:47:07;101335.34;;;6.16;100.00
78613;BME280;67933;51.060;3.638;2023-12-14T02:49:32;101347.63;;;6.17;100.00
78613;BME280;67933;51.060;3.638;2023-12-14T02:51:58;101354.63;;;6.18;100.00
78613;BME280;67933;51.060;3.638;2023-12-14T02:54:24;101359.97;;;6.15;100.00
78613;BME280;67933;51.060;3.638;2023-12-14T02:56:49;101365.25;;;6.15;100.00
78613;BME280;67933;51.060;3.638;2023-12-14T02:59:14;101365.16;;;6.18;100.00
78613;BME280;67933;51.060;3.638;2023-12-14T03:01:40;101374.84;;;6.17;100.00
78613;BME280;67933;51.060;3.638;2023-12-14T03:04:06;101365.16;;;6.18;100.00
78613;BME280;67933;51.060;3.638;2023-12-14T03:06:32;101373.84;;;6.20;100.00
78613;BME280;67933;51.060;3.638;2023-12-14T03:08:57;101385.41;;;6.16;100.00
78613;BME280;67933;51.060;3.638;2023-12-14T03:11:23;101383.53;;;6.19;100.00
78613;BME280;67933;51.060;3.638;2023-12-14T03:13:49;101381.88;;;6.17;100.00
78613;BME280;67933;51.060;3.638;2023-12-14T03:16:15;101393.50;;;6.10;100.00
78613;BME280;67933;51.060;3.638;2023-12-14T03:18:42;101387.41;;;6.08;100.00
78613;BME280;67933;51.060;3.638;2023-12-14T03:21:08;101397.13;;;6.06;100.00
78613;BME280;67933;51.060;3.638;2023-12-14T03:23:34;101398.66;;;6.13;100.00
78613;BME280;67933;51.060;3.638;2023-12-14T03:25:59;101401.38;;;6.11;100.00
78613;BME280;67933;51.060;3.638;2023-12-14T03:28:25;101407.78;;;6.03;100.00
78613;BME280;67933;51.060;3.638;2023-12-14T03:30:50;101407.47;;;6.12;100.00
78613;BME280;67933;51.060;3.638;2023-12-14T03:33:15;101414.56;;;6.10;100.00
78613;BME280;67933;51.060;3.638;2023-12-14T03:35:41;101414.53;;;6.11;100.00
78613;BME280;67933;51.060;3.638;2023-12-14T03:38:07;101410.28;;;6.06;100.00
78613;BME280;67933;51.060;3.638;2023-12-14T03:40:33;101408.66;;;6.02;100.00
78613;BME280;67933;51.060;3.638;2023-12-14T03:42:58;101418.31;;;6.03;100.00
78613;BME280;67933;51.060;3.638;2023-12-14T03:45:24;101418.31;;;6.03;100.00
78613;BME280;67933;51.060;3.638;2023-12-14T03:47:49;101432.19;;;6.08;100.00
78613;BME280;67933;51.060;3.638;2023-12-14T03:50:14;101430.41;;;6.08;100.00
78613;BME280;67933;51.060;3.638;2023-12-14T03:52:40;101434.91;;;6.05;100.00
78613;BME280;67933;51.060;3.638;2023-12-14T03:55:06;101443.66;;;6.05;100.00
78613;BME280;67933;51.060;3.638;2023-12-14T03:57:31;101446.38;;;6.04;100.00
78613;BME280;67933;51.060;3.638;2023-12-14T03:59:57;101448.19;;;6.02;100.00
78613;BME280;67933;51.060;3.638;2023-12-14T04:02:23;101454.31;;;6.02;100.00
78613;BME280;67933;51.060;3.638;2023-12-14T04:04:48;101453.44;;;6.02;100.00
78613;BME280;67933;51.060;3.638;2023-12-14T04:07:13;101452.63;;;6.00;100.00
78613;BME280;67933;51.060;3.638;2023-12-14T04:09:39;101459.66;;;5.99;100.00
78613;BME280;67933;51.060;3.638;2023-12-14T04:12:04;101469.44;;;5.96;100.00
78613;BME280;67933;51.060;3.638;2023-12-14T04:14:30;101470.34;;;5.95;100.00
78613;BME280;67933;51.060;3.638;2023-12-14T04:16:55;101480.91;;;5.93;100.00
78613;BME280;67933;51.060;3.638;2023-12-14T04:19:21;101495.84;;;5.93;100.00
78613;BME280;67933;51.060;3.638;2023-12-14T04:21:47;101496.69;;;5.93;100.00
78613;BME280;67933;51.060;3.638;2023-12-14T04:24:13;101510.75;;;5.92;100.00
78613;BME280;67933;51.060;3.638;2023-12-14T04:26:38;101522.16;;;5.93;100.00
78613;BME280;67933;51.060;3.638;2023-12-14T04:29:05;101518.63;;;5.94;100.00
78613;BME280;67933;51.060;3.638;2023-12-14T04:31:31;101533.47;;;5.96;100.00
78613;BME280;67933;51.060;3.638;2023-12-14T04:33:57;101543.16;;;5.96;100.00
78613;BME280;67933;51.060;3.638;2023-12-14T04:36:22;101553.59;;;5.99;100.00
78613;BME280;67933;51.060;3.638;2023-12-14T04:38:47;101550.13;;;5.97;100.00
78613;BME280;67933;51.060;3.638;2023-12-14T04:41:13;101560.75;;;5.94;100.00
78613;BME280;67933;51.060;3.638;2023-12-14T04:43:39;101575.56;;;5.98;100.00
78613;BME280;67933;51.060;3.638;2023-12-14T04:46:04;101576.47;;;5.97;100.00
78613;BME280;67933;51.060;3.638;2023-12-14T04:48:31;101574.81;;;5.93;100.00
78613;BME280;67933;51.060;3.638;2023-12-14T04:50:57;101565.16;;;5.93;100.00
78613;BME280;67933;51.060;3.638;2023-12-14T04:53:22;101567.06;;;5.87;100.00
78613;BME280;67933;51.060;3.638;2023-12-14T04:55:47;101570.59;;;5.86;100.00
78613;BME280;67933;51.060;3.638;2023-12-14T04:58:13;101578.50;;;5.86;100.00
78613;BME280;67933;51.060;3.638;2023-12-14T05:00:38;101568.88;;;5.85;100.00
78613;BME280;67933;51.060;3.638;2023-12-14T05:03:04;101583.75;;;5.86;100.00
78613;BME280;67933;51.060;3.638;2023-12-14T05:05:29;101587.28;;;5.85;100.00
78613;BME280;67933;51.060;3.638;2023-12-14T05:07:54;101588.16;;;5.85;100.00
78613;BME280;67933;51.060;3.638;2023-12-14T05:10:20;101592.56;;;5.85;100.00
78613;BME280;67933;51.060;3.638;2023-12-14T05:12:45;101592.63;;;5.81;100.00
78613;BME280;67933;51.060;3.638;2023-12-14T05:15:11;101585.56;;;5.84;100.00
78613;BME280;67933;51.060;3.638;2023-12-14T05:17:36;101591.59;;;5.89;100.00
78613;BME280;67933;51.060;3.638;2023-12-14T05:20:07;101584.63;;;5.86;100.00
78613;BME280;67933;51.060;3.638;2023-12-14T05:22:33;101592.53;;;5.88;100.00
78613;BME280;67933;51.060;3.638;2023-12-14T05:24:59;101588.13;;;5.87;100.00
78613;BME280;67933;51.060;3.638;2023-12-14T05:27:24;101591.59;;;5.89;100.00
78613;BME280;67933;51.060;3.638;2023-12-14T05:29:50;101596.94;;;5.86;100.00
78613;BME280;67933;51.060;3.638;2023-12-14T05:32:15;101605.78;;;5.81;100.00
78613;BME280;67933;51.060;3.638;2023-12-14T05:34:41;101614.56;;;5.82;100.00
78613;BME280;67933;51.060;3.638;2023-12-14T05:37:06;101607.53;;;5.82;100.00
78613;BME280;67933;51.060;3.638;2023-12-14T05:39:32;101618.06;;;5.82;100.00
78613;BME280;67933;51.060;3.638;2023-12-14T05:41:57;101611.06;;;5.81;100.00
78613;BME280;67933;51.060;3.638;2023-12-14T05:44:23;101635.69;;;5.80;100.00
78613;BME280;67933;51.060;3.638;2023-12-14T05:46:50;101634.72;;;5.83;100.00
78613;BME280;67933;51.060;3.638;2023-12-14T05:49:15;101629.50;;;5.81;100.00
78613;BME280;67933;51.060;3.638;2023-12-14T05:51:41;101643.59;;;5.80;100.00
78613;BME280;67933;51.060;3.638;2023-12-14T05:54:06;101661.16;;;5.80;100.00
78613;BME280;67933;51.060;3.638;2023-12-14T05:56:32;101651.47;;;5.80;100.00
78613;BME280;67933;51.060;3.638;2023-12-14T05:58:57;101666.44;;;5.78;100.00
78613;BME280;67933;51.060;3.638;2023-12-14T06:01:24;101668.25;;;5.76;100.00
78613;BME280;67933;51.060;3.638;2023-12-14T06:03:50;101674.50;;;5.72;100.00
78613;BME280;67933;51.060;3.638;2023-12-14T06:06:16;101683.31;;;5.70;100.00
78613;BME280;67933;51.060;3.638;2023-12-14T06:08:42;101672.78;;;5.70;100.00
78613;BME280;67933;51.060;3.638;2023-12-14T06:11:07;101673.72;;;5.67;100.00
78613;BME280;67933;51.060;3.638;2023-12-14T06:13:34;101685.22;;;5.65;100.00
78613;BME280;67933;51.060;3.638;2023-12-14T06:15:59;101696.56;;;5.65;100.00
78613;BME280;67933;51.060;3.638;2023-12-14T06:18:25;101698.97;;;5.76;100.00
78613;BME280;67933;51.060;3.638;2023-12-14T06:20:50;101709.47;;;5.77;100.00
78613;BME280;67933;51.060;3.638;2023-12-14T06:23:16;101716.50;;;5.77;100.00
78613;BME280;67933;51.060;3.638;2023-12-14T06:25:42;101717.22;;;5.84;100.00
78613;BME280;67933;51.060;3.638;2023-12-14T06:28:07;101732.00;;;5.91;100.00
78613;BME280;67933;51.060;3.638;2023-12-14T06:30:33;101724.94;;;5.93;100.00
78613;BME280;67933;51.060;3.638;2023-12-14T06:32:59;101720.69;;;5.86;100.00
78613;BME280;67933;51.060;3.638;2023-12-14T06:35:24;101735.78;;;5.77;100.00
78613;BME280;67933;51.060;3.638;2023-12-14T06:37:49;101745.44;;;5.78;100.00
78613;BME280;67933;51.060;3.638;2023-12-14T06:40:15;101749.88;;;5.75;100.00
78613;BME280;67933;51.060;3.638;2023-12-14T06:42:40;101749.00;;;5.74;100.00
78613;BME280;67933;51.060;3.638;2023-12-14T06:45:08;101759.53;;;5.74;100.00
78613;BME280;67933;51.060;3.638;2023-12-14T06:47:33;101760.38;;;5.76;100.00
78613;BME280;67933;51.060;3.638;2023-12-14T06:49:59;101763.00;;;5.76;100.00
78613;BME280;67933;51.060;3.638;2023-12-14T06:52:24;101769.13;;;5.78;100.00
78613;BME280;67933;51.060;3.638;2023-12-14T06:54:50;101773.53;;;5.76;100.00
78613;BME280;67933;51.060;3.638;2023-12-14T06:57:15;101763.03;;;5.75;100.00
78613;BME280;67933;51.060;3.638;2023-12-14T06:59:41;101760.41;;;5.75;100.00
78613;BME280;67933;51.060;3.638;2023-12-14T07:02:06;101773.59;;;5.73;100.00
78613;BME280;67933;51.060;3.638;2023-12-14T07:04:32;101773.69;;;5.70;100.00
78613;BME280;67933;51.060;3.638;2023-12-14T07:06:57;101774.59;;;5.69;100.00
78613;BME280;67933;51.060;3.638;2023-12-14T07:09:24;101780.69;;;5.71;100.00
78613;BME280;67933;51.060;3.638;2023-12-14T07:11:49;101774.59;;;5.69;100.00
78613;BME280;67933;51.060;3.638;2023-12-14T07:14:15;101779.00;;;5.67;100.00
78613;BME280;67933;51.060;3.638;2023-12-14T07:16:41;101780.97;;;5.58;100.00
78613;BME280;67933;51.060;3.638;2023-12-14T07:19:06;101784.69;;;5.49;100.00
78613;BME280;67933;51.060;3.638;2023-12-14T07:21:32;101792.06;;;5.33;100.00
78613;BME280;67933;51.060;3.638;2023-12-14T07:23:58;101787.13;;;5.17;100.00
78613;BME280;67933;51.060;3.638;2023-12-14T07:26:24;101796.13;;;5.03;100.00
78613;BME280;67933;51.060;3.638;2023-12-14T07:28:51;101799.91;;;4.90;100.00
78613;BME280;67933;51.060;3.638;2023-12-14T07:31:16;101807.97;;;4.81;100.00
78613;BME280;67933;51.060;3.638;2023-12-14T07:33:42;101812.44;;;4.76;100.00
78613;BME280;67933;51.060;3.638;2023-12-14T07:36:08;101822.13;;;4.74;100.00
78613;BME280;67933;51.060;3.638;2023-12-14T07:38:33;101835.34;;;4.71;100.00
78613;BME280;67933;51.060;3.638;2023-12-14T07:40:59;101842.28;;;4.74;100.00
78613;BME280;67933;51.060;3.638;2023-12-14T07:43:24;101849.22;;;4.79;100.00
78613;BME280;67933;51.060;3.638;2023-12-14T07:45:50;101849.00;;;4.90;100.00
78613;BME280;67933;51.060;3.638;2023-12-14T07:48:15;101850.59;;;4.98;100.00
78613;BME280;67933;51.060;3.638;2023-12-14T07:50:40;101855.69;;;5.08;100.00
78613;BME280;67933;51.060;3.638;2023-12-14T07:53:06;101853.78;;;5.16;100.00
78613;BME280;67933;51.060;3.638;2023-12-14T07:55:31;101860.63;;;5.24;100.00
78613;BME280;67933;51.060;3.638;2023-12-14T07:57:56;101864.94;;;5.27;100.00
78613;BME280;67933;51.060;3.638;2023-12-14T08:00:22;101878.00;;;5.33;100.00
78613;BME280;67933;51.060;3.638;2023-12-14T08:02:47;101870.88;;;5.38;100.00
78613;BME280;67933;51.060;3.638;2023-12-14T08:05:13;101874.22;;;5.46;100.00
78613;BME280;67933;51.060;3.638;2023-12-14T08:07:38;101871.44;;;5.54;100.00
78613;BME280;67933;51.060;3.638;2023-12-14T08:10:04;101885.34;;;5.59;100.00
78613;BME280;67933;51.060;3.638;2023-12-14T08:12:30;101887.91;;;5.63;100.00
78613;BME280;67933;51.060;3.638;2023-12-14T08:14:55;101898.38;;;5.66;100.00
78613;BME280;67933;51.060;3.638;2023-12-14T08:17:20;101895.72;;;5.68;100.00
78613;BME280;67933;51.060;3.638;2023-12-14T08:19:46;101895.72;;;5.66;100.00
78613;BME280;67933;51.060;3.638;2023-12-14T08:22:12;101903.59;;;5.68;100.00
78613;BME280;67933;51.060;3.638;2023-12-14T08:24:41;101900.91;;;5.72;100.00
78613;BME280;67933;51.060;3.638;2023-12-14T08:27:07;101907.84;;;5.75;100.00
78613;BME280;67933;51.060;3.638;2023-12-14T08:29:32;101914.69;;;5.84;100.00
78613;BME280;67933;51.060;3.638;2023-12-14T08:31:58;101914.56;;;5.91;100.00
78613;BME280;67933;51.060;3.638;2023-12-14T08:34:28;101919.78;;;5.94;100.00
78613;BME280;67933;51.060;3.638;2023-12-14T08:36:55;101927.53;;;6.00;100.00
78613;BME280;67933;51.060;3.638;2023-12-14T08:39:21;101933.56;;;6.05;100.00
78613;BME280;67933;51.060;3.638;2023-12-14T08:41:46;101935.94;;;6.17;100.00
78613;BME280;67933;51.060;3.638;2023-12-14T08:44:16;101937.56;;;6.23;100.00
78613;BME280;67933;51.060;3.638;2023-12-14T08:46:46;101946.31;;;6.25;100.00
78613;BME280;67933;51.060;3.638;2023-12-14T08:49:12;101940.22;;;6.22;100.00
78613;BME280;67933;51.060;3.638;2023-12-14T08:51:39;101946.38;;;6.22;100.00
78613;BME280;67933;51.060;3.638;2023-12-14T08:54:05;101949.97;;;6.18;100.00
78613;BME280;67933;51.060;3.638;2023-12-14T08:56:31;101947.28;;;6.19;100.00
78613;BME280;67933;51.060;3.638;2023-12-14T08:58:56;101948.16;;;6.20;100.00
78613;BME280;67933;51.060;3.638;2023-12-14T09:01:24;101947.25;;;6.23;100.00
78613;BME280;67933;51.060;3.638;2023-12-14T09:03:50;101958.69;;;6.20;100.00
78613;BME280;67933;51.060;3.638;2023-12-14T09:06:17;101951.50;;;6.28;100.00
78613;BME280;67933;51.060;3.638;2023-12-14T09:08:44;101964.47;;;6.37;100.00
78613;BME280;67933;51.060;3.638;2023-12-14T09:11:10;101956.50;;;6.40;100.00
78613;BME280;67933;51.060;3.638;2023-12-14T09:13:36;101976.56;;;6.47;100.00
78613;BME280;67933;51.060;3.638;2023-12-14T09:16:01;101977.41;;;6.49;100.00
78613;BME280;67933;51.060;3.638;2023-12-14T09:18:26;101979.88;;;6.55;100.00
78613;BME280;67933;51.060;3.638;2023-12-14T09:20:52;101983.31;;;6.59;100.00
78613;BME280;67933;51.060;3.638;2023-12-14T09:23:18;101992.72;;;6.71;100.00
78613;BME280;67933;51.060;3.638;2023-12-14T09:25:45;101979.00;;;6.92;100.00
78613;BME280;67933;51.060;3.638;2023-12-14T09:28:10;101990.84;;;7.11;100.00
78613;BME280;67933;51.060;3.638;2023-12-14T09:30:36;101993.25;;;7.20;100.00
78613;BME280;67933;51.060;3.638;2023-12-14T09:33:01;101996.63;;;7.27;100.00
78613;BME280;67933;51.060;3.638;2023-12-14T09:35:27;102000.22;;;7.23;100.00
78613;BME280;67933;51.060;3.638;2023-12-14T09:37:52;102000.25;;;7.21;100.00
78613;BME280;67933;51.060;3.638;2023-12-14T09:40:19;102006.53;;;7.17;100.00
78613;BME280;67933;51.060;3.638;2023-12-14T09:42:45;102013.69;;;7.12;100.00
78613;BME280;67933;51.060;3.638;2023-12-14T09:45:11;102016.47;;;7.06;100.00
78613;BME280;67933;51.060;3.638;2023-12-14T09:47:37;102024.72;;;6.92;100.00
78613;BME280;67933;51.060;3.638;2023-12-14T09:50:04;102023.13;;;6.85;100.00
78613;BME280;67933;51.060;3.638;2023-12-14T09:52:30;102033.81;;;6.81;100.00
78613;BME280;67933;51.060;3.638;2023-12-14T09:54:56;102038.22;;;6.80;100.00
78613;BME280;67933;51.060;3.638;2023-12-14T09:57:21;102034.75;;;6.77;100.00
78613;BME280;67933;51.060;3.638;2023-12-14T09:59:54;102041.06;;;6.70;100.00
78613;BME280;67933;51.060;3.638;2023-12-14T10:02:25;102044.69;;;6.66;100.00
78613;BME280;67933;51.060;3.638;2023-12-14T10:04:51;102045.50;;;6.68;100.00
78613;BME280;67933;51.060;3.638;2023-12-14T10:07:16;102050.13;;;6.58;100.00
78613;BME280;67933;51.060;3.638;2023-12-14T10:09:42;102063.44;;;6.52;100.00
78613;BME280;67933;51.060;3.638;2023-12-14T10:12:09;102056.47;;;6.49;100.00
78613;BME280;67933;51.060;3.638;2023-12-14T10:14:36;102067.06;;;6.46;100.00
78613;BME280;67933;51.060;3.638;2023-12-14T10:17:21;102072.19;;;6.52;100.00
78613;BME280;67933;51.060;3.638;2023-12-14T10:19:47;102073.06;;;6.53;100.00
78613;BME280;67933;51.060;3.638;2023-12-14T10:22:17;102077.47;;;6.52;100.00
78613;BME280;67933;51.060;3.638;2023-12-14T10:24:52;102072.06;;;6.58;100.00
78613;BME280;67933;51.060;3.638;2023-12-14T10:27:17;102073.72;;;6.64;100.00
78613;BME280;67933;51.060;3.638;2023-12-14T10:29:43;102079.69;;;6.72;100.00
78613;BME280;67933;51.060;3.638;2023-12-14T10:32:10;102081.31;;;6.78;100.00
78613;BME280;67933;51.060;3.638;2023-12-14T10:34:37;102081.97;;;6.89;100.00
78613;BME280;67933;51.060;3.638;2023-12-14T10:37:06;102079.22;;;6.93;100.00
78613;BME280;67933;51.060;3.638;2023-12-14T10:39:34;102083.22;;;7.11;100.00
78613;BME280;67933;51.060;3.638;2023-12-14T10:42:02;102093.47;;;7.23;100.00
78613;BME280;67933;51.060;3.638;2023-12-14T10:44:30;102093.25;;;7.32;100.00
78613;BME280;67933;51.060;3.638;2023-12-14T10:46:58;102100.94;;;7.42;100.00
78613;BME280;67933;51.060;3.638;2023-12-14T10:49:25;102106.00;;;7.51;100.00
78613;BME280;67933;51.060;3.638;2023-12-14T10:51:55;102106.78;;;7.54;100.00
78613;BME280;67933;51.060;3.638;2023-12-14T10:54:24;102109.56;;;7.50;100.00
78613;BME280;67933;51.060;3.638;2023-12-14T10:56:54;102113.31;;;7.40;100.00
78613;BME280;67933;51.060;3.638;2023-12-14T10:59:21;102106.34;;;7.35;100.00
78613;BME280;67933;51.060;3.638;2023-12-14T11:01:54;102102.94;;;7.32;100.00
78613;BME280;67933;51.060;3.638;2023-12-14T11:04:23;102106.44;;;7.32;100.00
78613;BME280;67933;51.060;3.638;2023-12-14T11:06:49;102104.56;;;7.38;100.00
78613;BME280;67933;51.060;3.638;2023-12-14T11:09:17;102109.47;;;7.51;100.00
78613;BME280;67933;51.060;3.638;2023-12-14T11:14:20;102104.50;;;7.41;100.00
78613;BME280;67933;51.060;3.638;2023-12-14T11:16:48;102108.94;;;7.39;100.00
78613;BME280;67933;51.060;3.638;2023-12-14T11:24:23;102115.50;;;7.58;100.00
78613;BME280;67933;51.060;3.638;2023-12-14T11:26:52;102124.31;;;7.58;100.00
78613;BME280;67933;51.060;3.638;2023-12-14T11:29:18;102126.94;;;7.58;100.00
78613;BME280;67933;51.060;3.638;2023-12-14T11:31:44;102134.75;;;7.63;100.00
78613;BME280;67933;51.060;3.638;2023-12-14T11:34:11;102125.97;;;7.61;100.00
78613;BME280;67933;51.060;3.638;2023-12-14T11:36:36;102136.53;;;7.61;100.00
78613;BME280;67933;51.060;3.638;2023-12-14T11:39:04;102135.63;;;7.62;100.00
78613;BME280;67933;51.060;3.638;2023-12-14T11:41:31;102134.75;;;7.63;100.00
78613;BME280;67933;51.060;3.638;2023-12-14T11:43:58;102141.94;;;7.56;100.00
78613;BME280;67933;51.060;3.638;2023-12-14T11:46:24;102141.16;;;7.51;100.00
78613;BME280;67933;51.060;3.638;2023-12-14T11:48:49;102135.94;;;7.50;100.00
78613;BME280;67933;51.060;3.638;2023-12-14T11:51:15;102136.75;;;7.52;100.00
78613;BME280;67933;51.060;3.638;2023-12-14T11:53:45;102139.38;;;7.53;100.00
78613;BME280;67933;51.060;3.638;2023-12-14T11:56:11;102145.38;;;7.60;100.00
78613;BME280;67933;51.060;3.638;2023-12-14T11:58:36;102142.47;;;7.70;100.00
78613;BME280;67933;51.060;3.638;2023-12-14T12:03:41;102155.50;;;7.78;100.00
78613;BME280;67933;51.060;3.638;2023-12-14T12:06:27;102152.88;;;7.77;100.00
78613;BME280;67933;51.060;3.638;2023-12-14T12:08:53;102153.59;;;7.83;100.00
78613;BME280;67933;51.060;3.638;2023-12-14T12:11:20;102155.50;;;7.78;100.00
78613;BME280;67933;51.060;3.638;2023-12-14T12:13:57;102154.59;;;7.79;100.00
78613;BME280;67933;51.060;3.638;2023-12-14T12:16:23;102156.47;;;7.74;100.00
78613;BME280;67933;51.060;3.638;2023-12-14T12:18:51;102143.50;;;7.65;100.00
78613;BME280;67933;51.060;3.638;2023-12-14T12:21:17;102148.91;;;7.59;100.00
78613;BME280;67933;51.060;3.638;2023-12-14T12:23:42;102147.09;;;7.61;100.00
78613;BME280;67933;51.060;3.638;2023-12-14T12:26:08;102149.69;;;7.64;100.00
78613;BME280;67933;51.060;3.638;2023-12-14T12:28:34;102144.56;;;7.58;100.00
78613;BME280;67933;51.060;3.638;2023-12-14T12:30:59;102153.56;;;7.49;100.00
78613;BME280;67933;51.060;3.638;2023-12-14T12:33:25;102151.00;;;7.45;100.00
78613;BME280;67933;51.060;3.638;2023-12-14T12:35:51;102151.16;;;7.39;100.00
78613;BME280;67933;51.060;3.638;2023-12-14T12:38:17;102154.84;;;7.31;100.00
78613;BME280;67933;51.060;3.638;2023-12-14T12:40:44;102163.59;;;7.35;100.00
78613;BME280;67933;51.060;3.638;2023-12-14T12:43:10;102167.38;;;7.59;100.00
78613;BME280;67933;51.060;3.638;2023-12-14T12:45:35;102165.44;;;7.67;100.00
78613;BME280;67933;51.060;3.638;2023-12-14T12:48:01;102161.63;;;7.79;100.00
78613;BME280;67933;51.060;3.638;2023-12-14T12:50:30;102168.66;;;8.13;100.00
78613;BME280;67933;51.060;3.638;2023-12-14T12:52:55;102162.13;;;8.28;100.00
78613;BME280;67933;51.060;3.638;2023-12-14T12:55:21;102171.38;;;8.10;100.00